LFPB/LBG METAR and TAF weather

Enter ICAO airport designator
Station Type Date Time Source
LFPB METAR 2019/04/18 23:00 UTC NOAA

LFPB 182300Z AUTO 01006KT CAVOK 15/05 Q1021 NOSIG


Station Type Date Time Source
LFPB Decoded METAR 2019/04/18 23:00 UTC NOAA

Paris / Le Bourget, France (LFPB) 48-58N 002-27E 65M
Apr 18, 2019 - 07:00 PM EDT / 2019.04.18 2300 UTC
Wind: from the N (010 degrees) at 7 MPH (6 KT):0
Visibility: greater than 7 mile(s):0
Temperature: 59 F (15 C)
Dew Point: 41 F (5 C)
Relative Humidity: 51%
Pressure (altimeter): 30.15 in. Hg (1021 hPa)
ob: LFPB 182300Z AUTO 01006KT CAVOK 15/05 Q1021 NOSIG
cycle: 23

Station Type Date Time Source
LFPB TAF 2019/04/18 18:21 UTC NOAA

TAF LFPB 181700Z 1818/1918 05010KT CAVOK

Example: see airport list